Aultbea, United Kingdom
Current Conditions -  °F | °C
As of 11:20 AM on Tuesday 21 Oct 2014 (Local Time) from EGPO Reporting Station
Rain Showers Rain Showers  
Wind Chill: 36°   Ceiling: Unl
Heat Index: 46°   Visibility: 6mi
Dew Point: 39°   Wind: 38mph
Humidity: 76%   Direction: 300°WNW
Pressure: 29.38"   Gusts: 53mph
Location:  57.87°N, 5.63°W
Report Text: EGPO 211020Z 30033G46KT 9999 VCSH FEW020CB SCT030 08/04 Q0995
Loading
Personal Weather Stations






























Interactive Weather Map
Tropical Storm Tracking
New forecast layout! Learn more

10-Day Weather Forecast

Advertisements
Track Severe Weather on mobile